< < Back
Terminal Aerodrome Forecast


Current Version              Previous Versions:   1  2  3  4  5  6  7  8  9  

Terminal Aerodrome Forecast

852
FTUS42 KJAX 282300
TAFJAX
TAF
KJAX 282320Z 2900/2924 23010G17KT P6SM SCT040 SCT250
     FM290300 24010KT P6SM VCTS BKN035CB BKN250
      TEMPO 2903/2907 4SM -TSRA BKN030CB
     FM290700 24007KT P6SM VCSH SCT030 BKN250
     FM291200 28009KT P6SM SCT030 BKN250=

Latest METAR

683
SAUS80 KWBC 291200
MTRJAX
METAR KJAX 291156Z 30006KT 10SM FEW250 25/23 A2990 RMK AO2 SLP125
T02500228 10272 20239 53005


USA.gov is the U.S. government's official web portal to all federal, state and local government web resources and services.